createdAt,value
2023-07-11T00:00:20.006Z,99.90
2023-07-11T00:02:50.007Z,99.90
2023-07-11T00:05:19.801Z,99.90
2023-07-11T00:07:48.510Z,99.90
2023-07-11T00:10:20.124Z,99.90
2023-07-11T00:12:48.532Z,99.90
2023-07-11T00:15:19.076Z,99.90
2023-07-11T00:17:49.291Z,99.90
2023-07-11T00:20:18.733Z,99.90
2023-07-11T00:22:47.481Z,99.90
2023-07-11T00:25:16.099Z,99.90
2023-07-11T00:27:44.336Z,99.90
2023-07-11T00:30:14.116Z,99.90
2023-07-11T00:32:43.828Z,99.90
2023-07-11T00:35:12.109Z,99.90
2023-07-11T00:37:40.405Z,99.90
2023-07-11T00:40:10.030Z,99.90
2023-07-11T00:42:38.356Z,99.90
2023-07-11T00:45:07.356Z,99.90
2023-07-11T00:47:35.688Z,99.90
2023-07-11T00:50:09.070Z,99.90
2023-07-11T00:52:39.142Z,99.90
2023-07-11T00:55:10.651Z,99.90
2023-07-11T00:57:42.591Z,99.90
2023-07-11T01:00:12.479Z,99.90
2023-07-11T01:02:40.825Z,99.90
2023-07-11T01:05:10.946Z,99.90
2023-07-11T01:07:39.818Z,99.80
2023-07-11T01:10:09.064Z,99.70
2023-07-11T01:12:37.531Z,99.80
2023-07-11T01:15:06.924Z,99.90
2023-07-11T01:17:37.098Z,99.90
2023-07-11T01:20:08.967Z,99.90
2023-07-11T01:22:40.434Z,99.80
2023-07-11T01:25:11.871Z,99.90
2023-07-11T01:27:40.622Z,99.90
2023-07-11T01:30:11.472Z,99.90
2023-07-11T01:32:40.269Z,99.90
2023-07-11T01:35:09.080Z,99.90
2023-07-11T01:37:38.934Z,99.90
2023-07-11T01:40:08.866Z,99.90
2023-07-11T01:42:38.111Z,99.90
2023-07-11T01:45:08.190Z,99.90
2023-07-11T01:47:36.541Z,99.90
2023-07-11T01:50:05.055Z,99.90
2023-07-11T01:52:33.454Z,99.90
2023-07-11T01:55:04.221Z,99.90
2023-07-11T01:57:33.610Z,99.90
2023-07-11T02:00:02.020Z,99.90
2023-07-11T02:02:31.008Z,99.90
2023-07-11T02:04:59.383Z,99.90
2023-07-11T02:07:27.786Z,99.90
2023-07-11T02:09:57.615Z,99.90
2023-07-11T02:12:27.430Z,99.90
2023-07-11T02:14:55.838Z,99.90
2023-07-11T02:17:24.243Z,99.90
2023-07-11T02:19:52.720Z,99.90
2023-07-11T02:22:23.986Z,99.90
2023-07-11T02:24:52.339Z,99.90
2023-07-11T02:27:20.614Z,99.90
2023-07-11T02:29:50.503Z,99.90
2023-07-11T02:32:18.807Z,99.90
2023-07-11T02:34:47.155Z,99.90
2023-07-11T02:37:15.473Z,99.90
2023-07-11T02:39:46.094Z,99.90
2023-07-11T02:42:14.550Z,99.90
2023-07-11T02:44:42.855Z,99.90
2023-07-11T02:47:13.517Z,99.90
2023-07-11T02:49:42.306Z,99.90
2023-07-11T02:52:12.075Z,99.90
2023-07-11T02:54:40.924Z,99.90
2023-07-11T02:57:11.046Z,99.90
2023-07-11T02:59:39.758Z,99.90
2023-07-11T03:02:08.445Z,99.90
2023-07-11T03:04:40.197Z,99.90
2023-07-11T03:07:08.713Z,99.90
2023-07-11T03:09:38.244Z,99.90
2023-07-11T03:12:07.542Z,99.90
2023-07-11T03:14:35.805Z,99.90
2023-07-11T03:17:04.311Z,99.90
2023-07-11T03:19:32.943Z,99.90
2023-07-11T03:22:02.914Z,99.90
2023-07-11T03:24:31.249Z,99.90
2023-07-11T03:26:59.577Z,99.90
2023-07-11T03:29:27.880Z,99.90
2023-07-11T03:31:56.176Z,99.90
2023-07-11T03:34:25.393Z,99.90
2023-07-11T03:36:53.792Z,99.90
2023-07-11T03:39:24.835Z,99.90
2023-07-11T03:41:53.313Z,99.90
2023-07-11T03:44:21.677Z,99.90
2023-07-11T03:46:50.015Z,99.90
2023-07-11T03:49:18.362Z,99.90
2023-07-11T03:51:46.719Z,99.90
2023-07-11T03:54:14.978Z,99.90
2023-07-11T03:56:46.637Z,99.90
2023-07-11T03:59:15.139Z,99.90
2023-07-11T04:01:43.415Z,99.90
2023-07-11T04:04:15.187Z,99.90
2023-07-11T04:06:44.037Z,99.90
2023-07-11T04:09:13.356Z,99.90
2023-07-11T04:11:41.624Z,99.90
2023-07-11T04:14:12.616Z,99.90
2023-07-11T04:16:40.951Z,99.90
2023-07-11T04:19:09.287Z,99.90
2023-07-11T04:21:37.839Z,99.90
2023-07-11T04:24:06.670Z,99.90
2023-07-11T04:26:35.016Z,99.80
2023-07-11T04:29:03.353Z,99.70
2023-07-11T04:31:33.010Z,99.70
2023-07-11T04:34:02.401Z,99.90
2023-07-11T04:36:30.783Z,99.50
2023-07-11T04:38:59.125Z,99.50
2023-07-11T04:41:27.413Z,99.40
2023-07-11T04:43:55.813Z,99.40
2023-07-11T04:46:24.093Z,99.40
2023-07-11T04:48:53.964Z,99.20
2023-07-11T04:51:22.448Z,99.20
2023-07-11T04:53:51.853Z,99.20
2023-07-11T04:56:20.153Z,99.10
2023-07-11T04:58:48.491Z,99.20
2023-07-11T05:01:22.021Z,99.30
2023-07-11T05:03:51.811Z,99.30
2023-07-11T05:06:21.859Z,99.20
2023-07-11T05:08:50.141Z,99.20
2023-07-11T05:11:19.823Z,99.20
2023-07-11T05:13:50.318Z,99.10
2023-07-11T05:16:21.409Z,99.00
2023-07-11T05:18:50.905Z,98.90
2023-07-11T05:21:21.720Z,99.00
2023-07-11T05:23:50.204Z,98.70
2023-07-11T05:26:19.476Z,98.80
2023-07-11T05:28:48.019Z,98.60
2023-07-11T05:31:17.221Z,98.50
2023-07-11T05:33:45.625Z,98.30
2023-07-11T05:36:22.153Z,98.20
2023-07-11T05:38:54.557Z,98.10
2023-07-11T05:41:23.110Z,97.70
2023-07-11T05:43:51.379Z,97.80
2023-07-11T05:46:19.809Z,97.60
2023-07-11T05:48:48.143Z,97.60
2023-07-11T05:51:17.977Z,97.50
2023-07-11T05:53:47.734Z,97.10
2023-07-11T05:56:18.665Z,96.90
2023-07-11T05:58:48.168Z,97.20
2023-07-11T06:01:18.547Z,96.70
2023-07-11T06:03:49.783Z,96.60
2023-07-11T06:06:20.849Z,96.50
2023-07-11T06:08:49.435Z,96.30
2023-07-11T06:11:19.032Z,96.00
2023-07-11T06:13:47.448Z,96.10
2023-07-11T06:16:18.465Z,95.90
2023-07-11T06:18:50.312Z,95.90
2023-07-11T06:21:18.684Z,95.80
2023-07-11T06:23:48.180Z,95.70
2023-07-11T06:26:18.433Z,95.60
2023-07-11T06:28:46.835Z,94.70
2023-07-11T06:31:15.554Z,94.70
2023-07-11T06:33:44.889Z,94.60
2023-07-11T06:36:14.134Z,94.70
2023-07-11T06:38:42.500Z,94.40
2023-07-11T06:41:11.060Z,94.50
2023-07-11T06:43:41.003Z,94.10
2023-07-11T06:46:10.623Z,94.10
2023-07-11T06:48:39.140Z,94.00
2023-07-11T06:51:07.784Z,93.30
2023-07-11T06:53:36.830Z,93.50
2023-07-11T06:56:05.848Z,93.20
2023-07-11T06:58:34.481Z,93.10
2023-07-11T07:01:10.930Z,93.30
2023-07-11T07:03:45.007Z,93.00
2023-07-11T07:06:15.892Z,92.70
2023-07-11T07:08:45.842Z,91.90
2023-07-11T07:11:15.901Z,92.00
2023-07-11T07:13:52.142Z,91.70
2023-07-11T07:16:34.589Z,91.70
2023-07-11T07:19:03.381Z,92.30
2023-07-11T07:21:31.998Z,91.30
2023-07-11T07:24:00.772Z,91.00
2023-07-11T07:26:29.562Z,91.30
2023-07-11T07:28:58.310Z,90.60
2023-07-11T07:31:28.242Z,90.50
2023-07-11T07:33:58.914Z,90.90
2023-07-11T07:36:30.136Z,90.60
2023-07-11T07:38:58.740Z,90.60
2023-07-11T07:41:28.250Z,90.50
2023-07-11T07:43:57.509Z,90.60
2023-07-11T07:46:26.894Z,90.50
2023-07-11T07:48:57.064Z,90.70
2023-07-11T07:51:25.373Z,90.50
2023-07-11T07:53:53.639Z,90.60
2023-07-11T07:56:23.754Z,90.70
2023-07-11T07:58:52.855Z,91.00
2023-07-11T08:01:22.709Z,90.70
2023-07-11T08:03:51.917Z,90.40
2023-07-11T08:06:21.580Z,90.60
2023-07-11T08:08:50.757Z,90.00
2023-07-11T08:11:21.018Z,89.40
2023-07-11T08:18:52.336Z,90.00
2023-07-11T08:21:22.345Z,89.20
2023-07-11T08:23:50.714Z,88.80
2023-07-11T08:26:19.218Z,87.40
2023-07-11T08:28:47.591Z,86.70
2023-07-11T08:31:16.496Z,87.80
2023-07-11T08:33:45.628Z,88.00
2023-07-11T08:36:16.004Z,87.70
2023-07-11T08:38:47.966Z,87.10
2023-07-11T08:41:25.571Z,86.20
2023-07-11T08:43:58.961Z,85.50
2023-07-11T08:46:29.783Z,86.90
2023-07-11T08:49:02.715Z,83.70
2023-07-11T08:51:34.582Z,84.10
2023-07-11T08:54:07.997Z,83.60
2023-07-11T08:56:42.686Z,85.10
2023-07-11T08:59:16.608Z,83.70
2023-07-11T09:01:51.116Z,83.40
2023-07-11T09:04:23.553Z,80.00
2023-07-11T09:06:56.895Z,79.70
2023-07-11T09:09:27.958Z,78.30
2023-07-11T09:12:08.339Z,77.90
2023-07-11T09:14:50.093Z,77.50
2023-07-11T09:17:25.298Z,78.50
2023-07-11T09:20:13.850Z,78.90
2023-07-11T09:22:51.368Z,78.80
2023-07-11T09:25:28.316Z,79.40
2023-07-11T09:28:01.502Z,77.10
2023-07-11T09:30:44.266Z,77.30
2023-07-11T09:33:17.044Z,75.60
2023-07-11T09:35:46.875Z,76.60
2023-07-11T09:38:20.855Z,75.80
2023-07-11T09:40:53.629Z,74.20
2023-07-11T09:43:22.051Z,74.60
2023-07-11T09:45:50.717Z,74.80
2023-07-11T09:48:21.353Z,72.70
2023-07-11T09:53:34.457Z,73.60
2023-07-11T09:56:13.291Z,73.90
2023-07-11T09:58:42.801Z,73.30
2023-07-11T10:01:19.459Z,73.40
2023-07-11T10:03:49.375Z,73.50
2023-07-11T10:09:17.032Z,73.00
2023-07-11T10:11:54.505Z,73.30
2023-07-11T10:14:26.333Z,73.10
2023-07-11T10:16:57.408Z,73.40
2023-07-11T10:19:25.852Z,73.70
2023-07-11T10:21:58.964Z,74.30
2023-07-11T10:24:40.505Z,73.20
2023-07-11T10:27:14.516Z,73.90
2023-07-11T10:29:47.140Z,71.90
2023-07-11T10:32:22.631Z,71.00
2023-07-11T10:34:54.775Z,72.20
2023-07-11T10:37:30.240Z,71.90
2023-07-11T10:40:07.063Z,70.60
2023-07-11T10:42:43.261Z,71.20
2023-07-11T10:45:16.383Z,69.60
2023-07-11T10:47:56.608Z,69.80
2023-07-11T10:50:32.696Z,69.90
2023-07-11T10:53:06.980Z,68.70
2023-07-11T10:55:45.270Z,67.80
2023-07-11T10:58:25.017Z,67.10
2023-07-11T11:01:01.813Z,67.70
2023-07-11T11:03:39.328Z,68.10
2023-07-11T11:06:33.005Z,66.50
2023-07-11T11:09:12.959Z,68.00
2023-07-11T11:11:57.631Z,68.70
2023-07-11T11:14:37.056Z,69.00
2023-07-11T11:17:17.085Z,67.10
2023-07-11T11:20:01.547Z,68.30
2023-07-11T11:22:39.109Z,68.90
2023-07-11T11:25:17.640Z,69.10
2023-07-11T11:27:55.456Z,67.80
2023-07-11T11:30:35.902Z,67.90
2023-07-11T11:33:15.337Z,67.70
2023-07-11T11:35:54.312Z,68.40
2023-07-11T11:38:35.140Z,68.30
2023-07-11T11:41:10.596Z,68.60
2023-07-11T11:45:58.741Z,69.30
2023-07-11T11:46:33.951Z,69.70
2023-07-11T11:49:36.520Z,68.70
2023-07-11T11:51:56.939Z,69.60
2023-07-11T11:54:27.393Z,69.00
2023-07-11T11:56:59.655Z,68.70
2023-07-11T11:59:30.306Z,68.40
2023-07-11T12:02:05.378Z,69.30
2023-07-11T12:05:00.941Z,70.00
2023-07-11T12:07:35.729Z,70.00
2023-07-11T12:10:22.003Z,68.70
2023-07-11T12:13:13.125Z,70.10
2023-07-11T12:15:42.101Z,70.10
2023-07-11T12:18:41.948Z,68.10
2023-07-11T12:21:27.781Z,68.40
2023-07-11T12:26:53.007Z,70.20
2023-07-11T12:29:39.709Z,68.60
2023-07-11T12:32:42.121Z,70.80
2023-07-11T12:35:21.193Z,68.80
2023-07-11T12:38:01.136Z,70.50
2023-07-11T12:40:34.814Z,69.90
2023-07-11T12:43:04.840Z,69.50
2023-07-11T12:45:38.755Z,69.80
2023-07-11T12:48:11.587Z,69.90
2023-07-11T12:50:46.546Z,68.90
2023-07-11T12:53:15.860Z,69.20
2023-07-11T12:55:44.797Z,69.70
2023-07-11T12:58:22.116Z,67.90
2023-07-11T13:00:51.553Z,68.40
2023-07-11T13:03:25.107Z,67.30
2023-07-11T13:06:11.662Z,69.60
2023-07-11T13:08:46.797Z,68.90
2023-07-11T13:11:23.017Z,69.50
2023-07-11T13:13:52.655Z,67.10
2023-07-11T13:16:24.549Z,67.00
2023-07-11T13:18:54.445Z,67.90
2023-07-11T13:21:26.056Z,66.50
2023-07-11T13:23:54.399Z,67.50
2023-07-11T13:26:25.288Z,65.70
2023-07-11T13:29:09.485Z,66.80
2023-07-11T13:31:39.276Z,65.40
2023-07-11T13:34:14.032Z,65.60
2023-07-11T13:36:46.268Z,66.10
2023-07-11T13:39:16.959Z,65.90
2023-07-11T13:41:49.265Z,65.40
2023-07-11T13:44:25.535Z,65.30
2023-07-11T13:46:54.444Z,66.10
2023-07-11T13:49:25.543Z,66.60
2023-07-11T13:51:59.733Z,65.20
2023-07-11T13:54:33.204Z,64.30
2023-07-11T13:57:02.288Z,64.40
2023-07-11T14:02:02.213Z,64.80
2023-07-11T14:04:34.423Z,65.90
2023-07-11T14:07:05.668Z,65.30
2023-07-11T14:09:34.018Z,65.00
2023-07-11T14:12:02.320Z,65.10
2023-07-11T14:14:39.919Z,64.80
2023-07-11T14:17:16.818Z,65.30
2023-07-11T14:19:45.550Z,67.30
2023-07-11T14:22:22.490Z,67.40
2023-07-11T14:24:50.960Z,64.50
2023-07-11T14:27:20.089Z,64.20
2023-07-11T14:29:48.497Z,65.70
2023-07-11T14:32:18.701Z,63.50
2023-07-11T14:34:47.192Z,64.40
2023-07-11T14:37:19.037Z,64.30
2023-07-11T14:39:48.442Z,66.70
2023-07-11T14:42:33.253Z,64.40
2023-07-11T14:45:01.610Z,65.50
2023-07-11T14:47:30.188Z,66.10
2023-07-11T14:50:00.226Z,66.00
2023-07-11T14:52:32.442Z,65.20
2023-07-11T15:00:06.399Z,64.10
2023-07-11T15:02:37.439Z,63.60
2023-07-11T15:10:12.470Z,63.70
2023-07-11T15:17:49.234Z,64.70
2023-07-11T15:20:19.914Z,64.30
2023-07-11T15:22:51.587Z,63.80
2023-07-11T15:25:29.043Z,64.20
2023-07-11T15:27:57.919Z,63.40
2023-07-11T15:30:26.860Z,65.10
2023-07-11T15:32:56.132Z,63.80
2023-07-11T15:35:26.801Z,64.40
2023-07-11T15:37:56.824Z,67.10
2023-07-11T15:40:27.164Z,65.80
2023-07-11T15:42:56.422Z,66.80
2023-07-11T15:45:27.473Z,66.10
2023-07-11T15:47:56.475Z,67.00
2023-07-11T15:50:27.709Z,67.30
2023-07-11T15:52:57.755Z,66.80
2023-07-11T15:55:29.271Z,65.00
2023-07-11T15:57:58.111Z,65.60
2023-07-11T16:00:28.772Z,64.80
2023-07-11T16:02:57.672Z,66.10
2023-07-11T16:05:29.622Z,65.30
2023-07-11T16:07:59.477Z,66.30
2023-07-11T16:10:31.140Z,66.30
2023-07-11T16:13:00.199Z,67.10
2023-07-11T16:15:32.059Z,65.40
2023-07-11T16:18:01.090Z,65.40
2023-07-11T16:20:33.508Z,65.90
2023-07-11T16:23:03.263Z,65.50
2023-07-11T16:25:32.813Z,66.20
2023-07-11T16:28:01.490Z,65.60
2023-07-11T16:30:32.951Z,66.60
2023-07-11T16:33:04.134Z,67.80
2023-07-11T16:35:36.533Z,68.40
2023-07-11T16:38:12.116Z,68.90
2023-07-11T16:40:40.536Z,68.90
2023-07-11T16:43:11.291Z,67.10
2023-07-11T16:45:40.154Z,67.80
2023-07-11T16:48:12.919Z,68.70
2023-07-11T16:50:42.274Z,69.80
2023-07-11T16:53:23.129Z,67.70
2023-07-11T16:55:53.065Z,69.20
2023-07-11T16:58:23.855Z,69.10
2023-07-11T17:00:54.443Z,69.80
2023-07-11T17:03:24.087Z,70.20
2023-07-11T17:05:53.373Z,68.20
2023-07-11T17:08:27.285Z,69.30
2023-07-11T17:10:55.566Z,69.00
2023-07-11T17:13:25.870Z,67.40
2023-07-11T17:15:56.961Z,68.40
2023-07-11T17:18:26.283Z,68.20
2023-07-11T17:20:57.278Z,67.40
2023-07-11T17:23:27.888Z,67.50
2023-07-11T17:26:00.433Z,67.10
2023-07-11T17:28:30.534Z,65.80
2023-07-11T17:30:59.309Z,67.20
2023-07-11T17:33:29.619Z,66.50
2023-07-11T17:36:01.440Z,68.10
2023-07-11T17:38:33.870Z,68.30
2023-07-11T17:41:02.702Z,68.70
2023-07-11T17:43:31.989Z,69.50
2023-07-11T17:46:25.301Z,71.70
2023-07-11T17:48:48.954Z,73.00
2023-07-11T17:51:18.010Z,74.10
2023-07-11T17:53:48.537Z,74.80
2023-07-11T17:56:17.901Z,74.60
2023-07-11T17:58:47.357Z,75.50
2023-07-11T18:01:18.915Z,76.00
2023-07-11T18:03:47.451Z,76.40
2023-07-11T18:06:17.298Z,76.30
2023-07-11T18:08:47.075Z,76.70
2023-07-11T18:11:16.646Z,76.10
2023-07-11T18:13:46.022Z,71.80
2023-07-11T18:16:18.309Z,73.40
2023-07-11T18:18:46.740Z,74.00
2023-07-11T18:21:15.165Z,72.60
2023-07-11T18:23:43.600Z,71.80
2023-07-11T18:26:16.791Z,74.00
2023-07-11T18:28:45.537Z,76.20
2023-07-11T18:31:19.240Z,76.60
2023-07-11T18:33:47.911Z,77.50
2023-07-11T18:36:21.503Z,78.00
2023-07-11T18:38:50.073Z,78.60
2023-07-11T18:41:19.708Z,77.80
2023-07-11T18:43:48.056Z,79.70
2023-07-11T18:46:19.091Z,78.90
2023-07-11T18:48:47.594Z,80.40
2023-07-11T18:51:18.480Z,79.70
2023-07-11T18:53:46.818Z,80.00
2023-07-11T18:56:17.479Z,80.80
2023-07-11T18:58:47.229Z,80.40
2023-07-11T19:01:15.600Z,79.00
2023-07-11T19:03:44.163Z,78.90
2023-07-11T19:06:15.869Z,79.70
2023-07-11T19:08:47.626Z,79.60
2023-07-11T19:11:18.683Z,80.30
2023-07-11T19:13:49.514Z,80.10
2023-07-11T19:16:20.617Z,80.60
2023-07-11T19:18:49.351Z,82.50
2023-07-11T19:21:17.628Z,82.00
2023-07-11T19:23:46.893Z,81.20
2023-07-11T19:26:18.121Z,82.90
2023-07-11T19:28:48.952Z,85.40
2023-07-11T19:31:18.036Z,87.10
2023-07-11T19:33:46.395Z,87.90
2023-07-11T19:36:18.579Z,88.70
2023-07-11T19:38:47.193Z,89.70
2023-07-11T19:41:17.721Z,90.00
2023-07-11T19:43:50.014Z,90.30
2023-07-11T19:46:22.186Z,90.50
2023-07-11T19:48:51.714Z,90.80
2023-07-11T19:51:19.934Z,91.00
2023-07-11T19:53:48.214Z,91.20
2023-07-11T19:56:23.540Z,91.30
2023-07-11T19:58:53.672Z,91.60
2023-07-11T20:01:22.254Z,91.50
2023-07-11T20:03:52.468Z,91.60
2023-07-11T20:06:23.676Z,91.50
2023-07-11T20:08:52.714Z,91.90
2023-07-11T20:11:21.058Z,92.50
2023-07-11T20:13:49.465Z,93.00
2023-07-11T20:16:21.156Z,93.40
2023-07-11T20:18:50.005Z,94.10
2023-07-11T20:21:21.990Z,94.50
2023-07-11T20:23:52.263Z,94.70
2023-07-11T20:26:24.168Z,95.00
2023-07-11T20:28:53.947Z,94.90
2023-07-11T20:31:24.601Z,95.10
2023-07-11T20:33:52.968Z,95.40
2023-07-11T20:36:23.389Z,95.60
2023-07-11T20:38:52.742Z,95.90
2023-07-11T20:41:21.293Z,96.10
2023-07-11T20:43:51.328Z,96.20
2023-07-11T20:46:22.302Z,96.30
2023-07-11T20:48:52.482Z,96.50
2023-07-11T20:51:22.151Z,96.60
2023-07-11T20:53:51.526Z,96.90
2023-07-11T20:56:22.750Z,97.10
2023-07-11T20:58:55.777Z,97.20
2023-07-11T21:01:27.534Z,97.30
2023-07-11T21:03:57.464Z,97.40
2023-07-11T21:06:31.068Z,97.40
2023-07-11T21:08:59.811Z,97.50
2023-07-11T21:11:28.451Z,97.40
2023-07-11T21:13:57.015Z,97.50
2023-07-11T21:16:27.576Z,97.60
2023-07-11T21:18:58.281Z,97.60
2023-07-11T21:21:27.820Z,97.70
2023-07-11T21:23:56.194Z,97.60
2023-07-11T21:26:26.238Z,97.60
2023-07-11T21:28:56.437Z,97.80
2023-07-11T21:31:27.565Z,97.80
2023-07-11T21:33:58.000Z,98.00
2023-07-11T21:36:27.789Z,98.00
2023-07-11T21:38:56.476Z,98.10
2023-07-11T21:41:24.858Z,98.20
2023-07-11T21:43:53.222Z,98.20
2023-07-11T21:46:24.334Z,98.10
2023-07-11T21:48:52.640Z,98.20
2023-07-11T21:51:22.390Z,98.30
2023-07-11T21:53:50.936Z,98.20
2023-07-11T21:56:23.698Z,98.20
2023-07-11T21:58:52.781Z,98.20
2023-07-11T22:01:23.542Z,98.20
2023-07-11T22:03:52.523Z,98.20
2023-07-11T22:06:26.741Z,98.20
2023-07-11T22:08:56.617Z,98.20
2023-07-11T22:11:25.614Z,98.30
2023-07-11T22:13:54.060Z,98.20
2023-07-11T22:16:24.462Z,98.20
2023-07-11T22:18:53.333Z,98.30
2023-07-11T22:21:25.073Z,98.40
2023-07-11T22:23:53.633Z,98.30
2023-07-11T22:26:24.440Z,98.30
2023-07-11T22:28:53.473Z,98.40
2023-07-11T22:31:25.151Z,98.50
2023-07-11T22:33:53.653Z,98.40
2023-07-11T22:36:23.305Z,98.50
2023-07-11T22:38:51.703Z,98.90
2023-07-11T22:41:19.945Z,98.60
2023-07-11T22:43:48.332Z,98.50
2023-07-11T22:46:19.397Z,98.50
2023-07-11T22:48:48.738Z,98.20
2023-07-11T22:51:18.437Z,98.20
2023-07-11T22:53:49.601Z,98.10
2023-07-11T22:56:20.329Z,98.20
2023-07-11T22:58:49.618Z,98.30
2023-07-11T23:01:19.334Z,98.30
2023-07-11T23:03:48.493Z,98.00
2023-07-11T23:06:20.632Z,97.90
2023-07-11T23:08:51.071Z,98.10
2023-07-11T23:11:20.533Z,98.10
2023-07-11T23:13:50.279Z,98.00
2023-07-11T23:16:28.036Z,98.10
2023-07-11T23:18:57.343Z,98.40
2023-07-11T23:21:25.840Z,98.40
2023-07-11T23:23:56.754Z,98.30
2023-07-11T23:26:25.559Z,98.10
2023-07-11T23:28:55.037Z,98.30
2023-07-11T23:31:23.428Z,98.20
2023-07-11T23:33:51.733Z,98.20
2023-07-11T23:36:22.595Z,97.90
2023-07-11T23:38:53.127Z,97.80
2023-07-11T23:41:23.456Z,97.60
2023-07-11T23:43:52.940Z,97.70
2023-07-11T23:46:24.211Z,97.80
2023-07-11T23:48:53.364Z,97.90
2023-07-11T23:51:23.141Z,98.30
2023-07-11T23:53:52.151Z,98.10
2023-07-11T23:56:23.912Z,97.90
2023-07-11T23:58:53.539Z,97.70
